Time;durP1;ratioP1;P1;durP2;ratioP2;P2;SDS_P1;SDS_P2;PMS_P1;PMS_P2;Temp;Humidity;BMP_temperature;BMP_pressure;BME280_temperature;BME280_humidity;BME280_pressure;Samples;Min_cycle;Max_cycle;Signal;HPM_P1;HPM_P2
2023/03/27 00:00:20;;;;;;;0.40;0.35;;;;;;;3.09;100.00;94586.75;1018303;29;20031;-66
2023/03/27 00:00:55;;;;;;;1.13;0.47;;;;;;;3.09;100.00;94591.94;1014779;29;20035;-65
2023/03/27 00:01:25;;;;;;;0.32;0.32;;;;;;;3.06;100.00;94590.63;1014336;29;20355;-66
2023/03/27 00:01:56;;;;;;;1.02;0.40;;;;;;;3.09;100.00;94591.16;1014200;29;20419;-65
2023/03/27 00:02:27;;;;;;;1.33;0.30;;;;;;;3.09;100.00;94584.16;1018714;29;20091;-66
2023/03/27 00:02:59;;;;;;;1.40;0.45;;;;;;;3.09;100.00;94583.38;1018779;29;20325;-64
2023/03/27 00:03:30;;;;;;;1.00;0.43;;;;;;;3.09;100.00;94583.38;1015182;29;20272;-65
2023/03/27 00:04:01;;;;;;;3.83;0.68;;;;;;;3.11;100.00;94586.50;1017619;29;20294;-66
2023/03/27 00:04:32;;;;;;;1.00;0.40;;;;;;;3.11;100.00;94586.50;1009642;29;20284;-68
2023/03/27 00:05:04;;;;;;;0.43;0.40;;;;;;;3.13;100.00;94587.06;1011101;29;20032;-65
2023/03/27 00:05:34;;;;;;;0.52;0.47;;;;;;;3.10;100.00;94579.75;1014615;29;20295;-67
2023/03/27 00:06:10;;;;;;;1.35;0.50;;;;;;;3.11;100.00;94579.50;1018694;28;20279;-68
2023/03/27 00:06:44;;;;;;;1.48;0.50;;;;;;;3.09;100.00;94584.16;1022211;29;20027;-67
2023/03/27 00:07:15;;;;;;;1.77;0.30;;;;;;;3.09;100.00;94593.75;1022111;29;20727;-67
2023/03/27 00:07:47;;;;;;;1.58;0.60;;;;;;;3.10;100.00;94590.13;1018407;29;20366;-68
2023/03/27 00:08:18;;;;;;;2.10;0.40;;;;;;;3.09;100.00;94584.16;1019003;29;20829;-68
2023/03/27 00:08:49;;;;;;;0.90;0.30;;;;;;;3.05;100.00;94580.47;1018020;29;20311;-65
2023/03/27 00:09:20;;;;;;;0.63;0.40;;;;;;;3.11;100.00;94587.28;1014705;29;20120;-67
2023/03/27 00:09:52;;;;;;;0.90;0.32;;;;;;;3.06;100.00;94577.66;1010208;29;20306;-68
2023/03/27 00:10:22;;;;;;;2.22;0.50;;;;;;;3.13;100.00;94587.06;1007015;29;20029;-67
2023/03/27 00:10:54;;;;;;;0.68;0.47;;;;;;;3.12;100.00;94588.06;1006834;29;20664;-66
2023/03/27 00:11:24;;;;;;;0.50;0.40;;;;;;;3.15;100.00;94587.56;1012495;29;20024;-67
2023/03/27 00:11:55;;;;;;;2.03;0.50;;;;;;;3.15;100.00;94592.75;1018869;29;20264;-66
2023/03/27 00:12:25;;;;;;;3.95;0.30;;;;;;;3.17;100.00;94588.91;1022205;29;20054;-68
2023/03/27 00:12:56;;;;;;;1.50;0.50;;;;;;;3.16;100.00;94589.16;1014747;29;20032;-65
2023/03/27 00:13:27;;;;;;;2.40;0.40;;;;;;;3.20;100.00;94592.81;1018576;29;20079;-69
2023/03/27 00:13:58;;;;;;;0.55;0.40;;;;;;;3.19;100.00;94594.63;1018053;29;20535;-65
2023/03/27 00:14:29;;;;;;;0.57;0.43;;;;;;;3.15;100.00;94583.16;1018488;28;20685;-67
2023/03/27 00:14:59;;;;;;;3.10;0.70;;;;;;;3.20;100.00;94595.41;1025750;28;20274;-69
2023/03/27 00:15:30;;;;;;;2.88;0.30;;;;;;;3.20;100.00;94585.03;1022355;29;20023;-68
2023/03/27 00:16:01;;;;;;;1.02;0.50;;;;;;;3.24;100.00;94596.47;1014594;29;20390;-66
2023/03/27 00:16:32;;;;;;;0.43;0.30;;;;;;;3.26;100.00;94597.81;1014071;29;20394;-64
2023/03/27 00:17:03;;;;;;;2.47;0.43;;;;;;;3.28;100.00;94594.97;1010508;29;20332;-64
2023/03/27 00:17:34;;;;;;;0.60;0.45;;;;;;;3.28;100.00;94592.38;1010937;29;20032;-66
2023/03/27 00:18:04;;;;;;;0.85;0.30;;;;;;;3.31;100.00;94597.06;1014169;29;20275;-69
2023/03/27 00:18:35;;;;;;;0.70;0.43;;;;;;;3.27;100.00;94590.81;1014520;29;20040;-67
2023/03/27 00:19:05;;;;;;;1.98;0.60;;;;;;;3.34;100.00;94599.16;1014570;29;20478;-69
2023/03/27 00:19:36;;;;;;;0.50;0.50;;;;;;;3.36;100.00;94599.72;1017453;29;20012;-66
2023/03/27 00:20:06;;;;;;;1.33;0.40;;;;;;;3.40;100.00;94600.78;1022375;29;20012;-70
2023/03/27 00:20:37;;;;;;;0.20;0.20;;;;;;;3.42;100.00;94598.75;1021995;29;20488;-67
2023/03/27 00:21:08;;;;;;;2.55;0.32;;;;;;;3.40;100.00;94595.59;1018398;29;20027;-64
2023/03/27 00:21:39;;;;;;;1.25;0.47;;;;;;;3.43;100.00;94600.31;1022014;29;20780;-69
2023/03/27 00:22:09;;;;;;;0.85;0.30;;;;;;;3.42;100.00;94598.75;1022265;29;20069;-68
2023/03/27 00:22:40;;;;;;;0.68;0.68;;;;;;;3.42;100.00;94600.53;1022495;29;20034;-67
2023/03/27 00:23:12;;;;;;;0.25;0.25;;;;;;;3.42;100.00;94595.34;1018284;29;20100;-66
2023/03/27 00:23:42;;;;;;;0.50;0.50;;;;;;;3.43;100.00;94592.53;1018194;29;20324;-66
2023/03/27 00:24:14;;;;;;;0.40;0.40;;;;;;;3.43;100.00;94597.72;1014565;29;20669;-68
2023/03/27 00:24:45;;;;;;;0.88;0.40;;;;;;;3.40;100.00;94589.63;1013976;29;20045;-67
2023/03/27 00:25:21;;;;;;;3.25;0.47;;;;;;;3.44;100.00;94590.72;1018327;29;20292;-67
2023/03/27 00:25:53;;;;;;;0.50;0.40;;;;;;;3.44;100.00;94596.66;1018360;29;20020;-65
2023/03/27 00:26:23;;;;;;;1.10;0.50;;;;;;;3.42;100.00;94592.75;1018213;29;20252;-67
2023/03/27 00:26:54;;;;;;;3.03;0.75;;;;;;;3.42;100.00;94598.75;1018099;29;20279;-66
2023/03/27 00:27:24;;;;;;;1.02;0.63;;;;;;;3.40;100.00;94590.41;1016148;29;20021;-66
2023/03/27 00:27:57;;;;;;;0.90;0.52;;;;;;;3.38;100.00;94587.28;1022153;29;20031;-68
2023/03/27 00:28:28;;;;;;;0.80;0.40;;;;;;;3.38;100.00;94592.47;1018544;29;20028;-66
2023/03/27 00:28:58;;;;;;;3.28;0.55;;;;;;;3.42;100.00;94601.34;1014467;29;20687;-66
2023/03/27 00:29:29;;;;;;;4.13;0.70;;;;;;;3.41;100.00;94597.16;1010705;29;20304;-70
2023/03/27 00:29:59;;;;;;;1.05;0.50;;;;;;;3.40;100.00;94595.59;1010363;29;20028;-66
2023/03/27 00:30:30;;;;;;;0.82;0.52;;;;;;;3.37;100.00;94590.13;1011455;29;20036;-66
2023/03/27 00:31:00;;;;;;;0.40;0.30;;;;;;;3.40;100.00;94597.41;1014416;29;20225;-68
2023/03/27 00:31:31;;;;;;;0.40;0.40;;;;;;;3.39;100.00;94601.81;1018258;29;20024;-68
2023/03/27 00:32:01;;;;;;;1.40;0.60;;;;;;;3.40;100.00;94600.78;1018248;29;20032;-68
2023/03/27 00:32:32;;;;;;;0.30;0.30;;;;;;;3.40;100.00;94602.59;1018287;29;20039;-66
2023/03/27 00:33:03;;;;;;;1.98;0.40;;;;;;;3.39;100.00;94604.41;1016005;29;20393;-66
2023/03/27 00:33:33;;;;;;;0.50;0.43;;;;;;;3.40;100.00;94600.00;1018486;29;20579;-66
2023/03/27 00:34:04;;;;;;;0.65;0.43;;;;;;;3.40;100.00;94600.00;1016741;29;20028;-67
2023/03/27 00:34:34;;;;;;;0.70;0.40;;;;;;;3.41;100.00;94601.56;1016647;29;20057;-66
2023/03/27 00:35:06;;;;;;;0.40;0.40;;;;;;;3.41;100.00;94602.34;1017336;29;20031;-67
2023/03/27 00:35:36;;;;;;;1.98;0.50;;;;;;;3.41;100.00;94601.56;1017398;29;20130;-68
2023/03/27 00:36:08;;;;;;;0.68;0.50;;;;;;;3.41;100.00;94602.34;1018425;29;20615;-65
2023/03/27 00:36:38;;;;;;;1.50;0.40;;;;;;;3.38;100.00;94599.47;1017008;29;20227;-68
2023/03/27 00:37:09;;;;;;;0.45;0.40;;;;;;;3.40;100.00;94602.59;1013611;29;20650;-70
2023/03/27 00:37:39;;;;;;;1.25;0.57;;;;;;;3.34;100.00;94598.41;1014739;29;20502;-66
2023/03/27 00:38:10;;;;;;;1.50;0.68;;;;;;;3.33;100.00;94595.03;1022311;29;20397;-68
2023/03/27 00:38:42;;;;;;;3.33;0.90;;;;;;;3.39;100.00;94599.22;1018028;29;20027;-67
2023/03/27 00:39:13;;;;;;;1.98;0.50;;;;;;;3.38;100.00;94596.88;1014313;29;20028;-67
2023/03/27 00:39:48;;;;;;;1.85;0.47;;;;;;;3.37;100.00;94605.69;1010211;29;20281;-66
2023/03/27 00:40:19;;;;;;;1.42;0.57;;;;;;;3.38;100.00;94605.44;1006689;29;20036;-67
2023/03/27 00:40:52;;;;;;;0.65;0.30;;;;;;;3.39;100.00;94599.22;1005465;29;20278;-67
2023/03/27 00:41:22;;;;;;;0.93;0.40;;;;;;;3.40;100.00;94603.38;1007358;29;20034;-68
2023/03/27 00:41:54;;;;;;;1.35;0.40;;;;;;;3.42;100.00;94603.94;1008080;29;20274;-66
2023/03/27 00:42:25;;;;;;;1.27;0.40;;;;;;;3.40;100.00;94600.78;1013470;29;20415;-67
2023/03/27 00:42:56;;;;;;;0.80;0.30;;;;;;;3.38;100.00;94595.06;1014637;29;20284;-67
2023/03/27 00:43:34;;;;;;;0.95;0.50;;;;;;;3.37;100.00;94596.09;1017010;29;20107;-66
2023/03/27 00:44:23;;;;;;;0.57;0.57;;;;;;;3.25;100.00;94577.31;1018081;29;20685;-67
2023/03/27 00:44:53;;;;;;;0.50;0.30;;;;;;;3.46;100.00;94602.41;1013709;29;20601;-67
2023/03/27 00:45:27;;;;;;;1.73;0.82;;;;;;;3.44;100.00;94601.84;1017849;29;20891;-66
2023/03/27 00:46:20;;;;;;;0.60;0.60;;;;;;;3.49;100.00;94599.31;1014288;29;20055;-67
2023/03/27 00:46:53;;;;;;;1.02;0.50;;;;;;;3.47;100.00;94598.78;997777;29;20275;-68
2023/03/27 00:47:34;;;;;;;2.78;0.52;;;;;;;3.45;100.00;94595.63;1014418;29;20284;-69
2023/03/27 00:48:05;;;;;;;1.73;0.70;;;;;;;3.47;100.00;94596.19;1010220;29;20284;-66
2023/03/27 00:48:35;;;;;;;1.85;0.40;;;;;;;3.47;100.00;94598.78;1014589;29;20264;-66
2023/03/27 00:49:08;;;;;;;1.58;0.50;;;;;;;3.50;100.00;94600.88;1010248;29;20261;-67
2023/03/27 00:49:39;;;;;;;2.75;0.60;;;;;;;3.46;100.00;94586.06;1014600;29;20031;-68
2023/03/27 00:50:12;;;;;;;0.93;0.47;;;;;;;3.52;100.00;94598.03;1018815;29;20335;-69
2023/03/27 00:50:42;;;;;;;0.70;0.50;;;;;;;3.52;100.00;94593.66;1018994;29;20027;-66
2023/03/27 00:51:13;;;;;;;2.40;0.40;;;;;;;3.57;100.00;94599.91;1021470;28;20327;-67
2023/03/27 00:51:45;;;;;;;1.30;0.60;;;;;;;3.51;100.00;94586.88;1014434;29;20039;-67
2023/03/27 00:52:16;;;;;;;1.08;0.60;;;;;;;3.56;100.00;94593.16;1015327;28;20297;-67
2023/03/27 00:52:46;;;;;;;4.38;0.50;;;;;;;3.59;100.00;94592.63;1022171;28;20270;-66
2023/03/27 00:53:20;;;;;;;1.27;0.43;;;;;;;3.62;100.00;94602.53;1021960;29;20580;-64
2023/03/27 00:53:51;;;;;;;2.30;1.42;;;;;;;3.65;100.00;94594.25;1022041;29;20023;-67
2023/03/27 00:54:25;;;;;;;4.63;0.65;;;;;;;3.65;100.00;94602.03;1021995;29;20543;-69
2023/03/27 00:54:57;;;;;;;1.33;0.73;;;;;;;3.63;100.00;94599.69;1018528;29;20115;-70
2023/03/27 00:55:27;;;;;;;3.17;0.47;;;;;;;3.64;100.00;94600.47;1018356;29;20306;-66
2023/03/27 00:56:00;;;;;;;1.75;0.50;;;;;;;3.64;100.00;94593.47;1018018;29;20283;-66
2023/03/27 00:56:32;;;;;;;0.98;0.60;;;;;;;3.62;100.00;94597.34;1010528;29;20033;-68
2023/03/27 00:57:04;;;;;;;0.70;0.40;;;;;;;3.63;100.00;94599.69;1006693;29;20768;-68
2023/03/27 00:57:35;;;;;;;2.10;0.45;;;;;;;3.60;100.00;94597.59;1010359;29;20268;-68
2023/03/27 00:58:08;;;;;;;1.20;0.65;;;;;;;3.63;100.00;94597.09;1010627;29;20364;-68
2023/03/27 00:58:45;;;;;;;0.57;0.50;;;;;;;3.61;100.00;94593.19;1011360;29;20324;-68
2023/03/27 00:59:16;;;;;;;1.90;0.55;;;;;;;3.63;100.00;94593.72;1006564;29;20700;-66
2023/03/27 00:59:47;;;;;;;4.68;0.60;;;;;;;3.64;100.00;94595.28;1011972;29;20273;-68
2023/03/27 01:00:18;;;;;;;0.73;0.40;;;;;;;3.65;100.00;94592.44;1010254;29;20750;-66
2023/03/27 01:00:51;;;;;;;0.50;0.40;;;;;;;3.64;100.00;94601.25;1012242;29;20064;-71
2023/03/27 01:01:22;;;;;;;3.03;0.50;;;;;;;3.63;100.00;94593.72;1021970;29;20275;-66
2023/03/27 01:01:52;;;;;;;1.00;0.52;;;;;;;3.63;100.00;94596.31;1010834;29;20397;-68
2023/03/27 01:02:23;;;;;;;2.08;0.47;;;;;;;3.63;100.00;94593.72;1010465;29;20288;-66
2023/03/27 01:02:53;;;;;;;0.85;0.45;;;;;;;3.63;100.00;94597.09;1010435;29;20088;-68
2023/03/27 01:03:25;;;;;;;0.57;0.43;;;;;;;3.62;100.00;94586.97;1014477;29;20051;-69
2023/03/27 01:04:01;;;;;;;0.50;0.30;;;;;;;3.64;100.00;94595.28;1018829;29;20036;-69
2023/03/27 01:04:32;;;;;;;1.15;0.50;;;;;;;3.64;100.00;94595.28;1018620;29;20284;-67
2023/03/27 01:05:03;;;;;;;0.82;0.60;;;;;;;3.62;100.00;94597.34;1014393;29;20758;-66
2023/03/27 01:05:34;;;;;;;0.85;0.47;;;;;;;3.64;100.00;94596.06;1015087;29;20280;-67
2023/03/27 01:06:05;;;;;;;1.40;0.43;;;;;;;3.63;100.00;94588.53;1014177;29;20381;-67
2023/03/27 01:06:35;;;;;;;0.60;0.50;;;;;;;3.63;100.00;94598.91;1014012;29;20433;-67
2023/03/27 01:07:07;;;;;;;0.85;0.63;;;;;;;3.61;100.00;94588.78;1018149;29;20051;-69
2023/03/27 01:07:38;;;;;;;0.52;0.50;;;;;;;3.61;100.00;94590.59;1014834;29;20036;-67
2023/03/27 01:08:08;;;;;;;0.60;0.50;;;;;;;3.60;100.00;94595.00;1017267;29;20279;-68
2023/03/27 01:08:39;;;;;;;0.50;0.40;;;;;;;3.55;100.00;94587.16;1014180;29;20028;-67
2023/03/27 01:09:09;;;;;;;0.50;0.47;;;;;;;3.61;100.00;94595.78;1010439;29;20036;-66
2023/03/27 01:09:40;;;;;;;3.00;0.65;;;;;;;3.63;100.00;94596.31;1010464;29;20047;-69
2023/03/27 01:10:11;;;;;;;2.45;0.55;;;;;;;3.62;100.00;94592.16;1010370;29;20036;-67
2023/03/27 01:11:00;;;;;;;1.08;0.40;;;;;;;3.60;100.00;94599.41;1014378;29;20024;-66
2023/03/27 01:11:58;;;;;;;1.08;0.50;;;;;;;3.62;100.00;94602.53;1014167;29;20044;-67
2023/03/27 01:12:59;;;;;;;1.08;0.45;;;;;;;3.61;100.00;94598.38;1022170;29;20310;-67
2023/03/27 01:13:56;;;;;;;0.88;0.57;;;;;;;3.49;100.00;94586.34;1005970;29;20277;-68
2023/03/27 01:14:33;;;;;;;1.23;0.40;;;;;;;3.59;100.00;94605.59;1014159;29;20107;-64
2023/03/27 01:15:28;;;;;;;2.20;1.08;;;;;;;3.59;100.00;94603.81;1018386;28;20271;-67
2023/03/27 01:16:06;;;;;;;2.58;0.90;;;;;;;3.57;100.00;94602.50;1026235;28;20259;-68
2023/03/27 01:16:57;;;;;;;0.98;0.70;;;;;;;3.55;100.00;94594.94;1022068;29;20307;-66
2023/03/27 01:17:48;;;;;;;1.77;0.73;;;;;;;3.55;100.00;94605.31;1022538;29;20266;-66
2023/03/27 01:18:41;;;;;;;1.20;0.70;;;;;;;3.54;100.00;94601.94;1023429;28;20042;-67
2023/03/27 01:19:25;;;;;;;1.33;0.80;;;;;;;3.54;100.00;94606.34;1026051;28;20360;-66
2023/03/27 01:20:06;;;;;;;1.52;0.50;;;;;;;3.51;100.00;94602.44;1024758;28;20310;-66
2023/03/27 01:21:04;;;;;;;2.40;0.80;;;;;;;3.51;100.00;94602.44;1014904;29;20267;-68
2023/03/27 01:21:56;;;;;;;0.80;0.77;;;;;;;3.51;100.00;94604.25;1014958;29;20275;-68
2023/03/27 01:22:52;;;;;;;1.27;0.70;;;;;;;3.51;100.00;94609.44;1023453;28;20260;-71
2023/03/27 01:23:25;;;;;;;2.40;0.50;;;;;;;3.48;100.00;94607.34;1027375;28;20247;-66
2023/03/27 01:24:01;;;;;;;1.73;0.50;;;;;;;3.47;100.00;94609.16;1030853;28;20651;-67
2023/03/27 01:24:46;;;;;;;0.85;0.77;;;;;;;3.46;100.00;94605.00;1030301;28;20809;-66
2023/03/27 01:25:42;;;;;;;1.13;0.70;;;;;;;3.48;100.00;94605.50;1014590;29;20781;-68
2023/03/27 01:26:15;;;;;;;1.58;0.80;;;;;;;3.48;100.00;94602.94;1014861;29;20288;-66
2023/03/27 01:27:21;;;;;;;1.25;0.55;;;;;;;3.49;100.00;94608.91;1017307;29;20347;-68
2023/03/27 01:28:13;;;;;;;1.67;0.65;;;;;;;3.47;100.00;94606.56;1017299;29;20318;-66
2023/03/27 01:28:57;;;;;;;0.75;0.75;;;;;;;3.45;100.00;94606.00;1018613;29;20268;-67
2023/03/27 01:29:47;;;;;;;1.00;0.68;;;;;;;3.45;100.00;94607.81;1011694;29;20269;-65
2023/03/27 01:30:28;;;;;;;0.80;0.80;;;;;;;3.43;100.00;94607.31;1015235;29;20674;-68
2023/03/27 01:31:20;;;;;;;0.93;0.60;;;;;;;3.44;100.00;94601.06;1011261;29;20355;-68
2023/03/27 01:32:08;;;;;;;1.95;0.70;;;;;;;3.42;100.00;94606.53;1014820;29;20354;-66
2023/03/27 01:33:32;;;;;;;0.93;0.82;;;;;;;3.40;100.00;94603.38;1013283;29;20287;-67
2023/03/27 01:34:41;;;;;;;2.08;0.95;;;;;;;3.39;100.00;94614.00;1018081;29;20503;-67
2023/03/27 01:35:36;;;;;;;0.73;0.73;;;;;;;3.39;100.00;94604.41;1003089;29;20381;-66
2023/03/27 01:36:31;;;;;;;0.80;0.80;;;;;;;3.40;100.00;94607.78;1014592;29;20264;-68
2023/03/27 01:37:23;;;;;;;1.45;0.93;;;;;;;3.38;100.00;94608.00;1014594;29;20430;-66
2023/03/27 01:38:02;;;;;;;1.50;1.05;;;;;;;3.39;100.00;94616.59;1012966;29;20284;-66
2023/03/27 01:38:54;;;;;;;1.25;0.90;;;;;;;3.38;100.00;94612.44;1010719;29;20291;-68
2023/03/27 01:39:34;;;;;;;0.88;0.70;;;;;;;3.36;100.00;94623.06;1010926;29;20907;-68
2023/03/27 01:40:09;;;;;;;1.48;0.95;;;;;;;3.38;100.00;94612.44;1018748;29;20267;-67
2023/03/27 01:41:00;;;;;;;1.65;0.88;;;;;;;3.36;100.00;94620.47;1018937;29;20108;-67
2023/03/27 01:41:52;;;;;;;2.33;0.95;;;;;;;3.32;100.00;94598.66;1018921;29;20267;-67
2023/03/27 01:42:31;;;;;;;1.00;0.80;;;;;;;3.37;100.00;94616.84;1020049;29;20586;-66
2023/03/27 01:43:16;;;;;;;2.88;0.75;;;;;;;3.36;100.00;94620.47;1014927;29;20794;-67
2023/03/27 01:44:04;;;;;;;0.65;0.52;;;;;;;3.35;100.00;94621.47;1015474;29;20292;-67
2023/03/27 01:44:52;;;;;;;1.05;0.88;;;;;;;3.35;100.00;94626.66;1014739;29;20295;-66
2023/03/27 01:45:31;;;;;;;0.95;0.88;;;;;;;3.34;100.00;94616.53;1018777;29;20576;-65
2023/03/27 01:46:13;;;;;;;3.25;1.02;;;;;;;3.33;100.00;94618.34;1014885;29;20852;-66
2023/03/27 01:46:48;;;;;;;3.40;1.10;;;;;;;3.32;100.00;94621.97;1018879;29;20267;-68
2023/03/27 01:47:41;;;;;;;1.02;0.80;;;;;;;3.31;100.00;94626.34;1018904;29;20321;-66
2023/03/27 01:48:26;;;;;;;1.23;0.80;;;;;;;3.32;100.00;94624.56;1018587;29;20355;-68
2023/03/27 01:49:06;;;;;;;1.45;1.13;;;;;;;3.32;100.00;94629.75;1020106;29;20361;-67
2023/03/27 01:49:42;;;;;;;1.30;1.00;;;;;;;3.31;100.00;94623.78;1014843;29;20276;-67
2023/03/27 01:50:31;;;;;;;2.05;1.83;;;;;;;3.30;100.00;94630.00;1014930;29;20089;-67
2023/03/27 01:51:10;;;;;;;2.05;0.93;;;;;;;3.29;100.00;94635.44;1014626;29;20271;-67
2023/03/27 01:51:44;;;;;;;1.02;0.98;;;;;;;3.29;100.00;94630.25;1018913;29;20260;-68
2023/03/27 01:52:21;;;;;;;1.85;1.35;;;;;;;3.27;100.00;94629.69;1010810;29;20680;-69
2023/03/27 01:53:28;;;;;;;2.30;1.33;;;;;;;3.29;100.00;94630.25;1010920;29;20812;-66
2023/03/27 01:54:29;;;;;;;1.20;1.10;;;;;;;3.28;100.00;94634.63;1004850;29;20282;-71
2023/03/27 01:55:03;;;;;;;2.38;1.25;;;;;;;3.30;100.00;94626.63;1006674;29;20314;-68
2023/03/27 01:55:35;;;;;;;2.22;1.50;;;;;;;3.31;100.00;94639.31;1003613;29;20474;-68
2023/03/27 01:56:09;;;;;;;1.73;1.42;;;;;;;3.31;100.00;94635.94;998931;29;20315;-69
2023/03/27 01:56:50;;;;;;;1.65;1.55;;;;;;;3.29;100.00;94635.44;1003208;29;20765;-69
2023/03/27 01:57:33;;;;;;;1.95;1.38;;;;;;;3.30;100.00;94634.41;1014952;29;20782;-71
2023/03/27 01:58:12;;;;;;;2.20;1.70;;;;;;;3.25;100.00;94626.56;1022723;29;20726;-68
2023/03/27 01:58:45;;;;;;;1.83;1.50;;;;;;;3.31;100.00;94638.53;1018691;29;20332;-66
2023/03/27 01:59:16;;;;;;;2.72;1.45;;;;;;;3.30;100.00;94632.59;1010785;29;20599;-69
2023/03/27 01:59:49;;;;;;;2.67;1.40;;;;;;;3.33;100.00;94630.53;1015011;29;20256;-67
2023/03/27 02:00:21;;;;;;;2.13;1.70;;;;;;;3.26;100.00;94620.38;1015429;29;20024;-66
2023/03/27 02:00:53;;;;;;;2.42;1.80;;;;;;;3.34;100.00;94637.28;1014791;29;20275;-67
2023/03/27 02:01:28;;;;;;;3.60;1.85;;;;;;;3.33;100.00;94633.91;1018492;29;20256;-67
2023/03/27 02:02:10;;;;;;;1.75;1.15;;;;;;;3.34;100.00;94632.88;1018733;29;20271;-69
2023/03/27 02:02:41;;;;;;;1.98;1.77;;;;;;;3.30;100.00;94624.81;1014596;29;20319;-66
2023/03/27 02:03:36;;;;;;;3.67;2.00;;;;;;;3.31;100.00;94628.94;1010668;29;20268;-70
2023/03/27 02:04:16;;;;;;;2.05;1.67;;;;;;;3.30;100.00;94627.41;1010295;29;20490;-69
2023/03/27 02:04:57;;;;;;;2.85;1.70;;;;;;;3.36;100.00;94635.25;1014418;29;20275;-67
2023/03/27 02:05:55;;;;;;;2.13;1.42;;;;;;;3.35;100.00;94639.63;1007038;29;20149;-67
2023/03/27 02:06:29;;;;;;;1.80;1.33;;;;;;;3.35;100.00;94637.03;1015076;29;20787;-67
2023/03/27 02:07:01;;;;;;;2.25;1.92;;;;;;;3.33;100.00;94631.31;1010859;29;20260;-66
2023/03/27 02:07:36;;;;;;;5.15;1.77;;;;;;;3.32;100.00;94634.94;1014874;29;20316;-68
2023/03/27 02:08:13;;;;;;;1.70;1.60;;;;;;;3.36;100.00;94633.44;1015164;29;20323;-68
2023/03/27 02:09:00;;;;;;;2.95;1.55;;;;;;;3.36;100.00;94636.00;1016492;29;20744;-67
2023/03/27 02:09:37;;;;;;;2.80;1.77;;;;;;;3.36;100.00;94630.06;1010829;29;20260;-68
2023/03/27 02:10:10;;;;;;;2.83;2.00;;;;;;;3.35;100.00;94634.44;1010817;29;20261;-66
2023/03/27 02:10:42;;;;;;;3.17;2.00;;;;;;;3.34;100.00;94638.06;1015077;29;20311;-69
2023/03/27 02:11:12;;;;;;;2.47;2.28;;;;;;;3.34;100.00;94632.88;1022298;28;20262;-68
2023/03/27 02:11:53;;;;;;;3.75;2.10;;;;;;;3.34;100.00;94638.06;1015162;29;20731;-71
2023/03/27 02:12:29;;;;;;;2.95;1.90;;;;;;;3.29;100.00;94631.03;1014871;29;20099;-70
2023/03/27 02:13:06;;;;;;;1.65;1.50;;;;;;;3.28;100.00;94639.03;1022593;28;20471;-68
2023/03/27 02:13:48;;;;;;;2.72;1.60;;;;;;;3.32;100.00;94642.72;1014848;29;20626;-69
2023/03/27 02:14:29;;;;;;;1.83;1.70;;;;;;;3.34;100.00;94638.06;1014922;29;20786;-70
2023/03/27 02:15:06;;;;;;;2.10;1.65;;;;;;;3.32;100.00;94645.31;1017818;29;20382;-68
2023/03/27 02:15:38;;;;;;;2.80;2.08;;;;;;;3.34;100.00;94637.28;1014816;29;20312;-68
2023/03/27 02:16:10;;;;;;;3.25;1.98;;;;;;;3.34;100.00;94635.47;1014892;29;20773;-70
2023/03/27 02:16:44;;;;;;;2.40;1.90;;;;;;;3.35;100.00;94638.84;1010576;29;20268;-68
2023/03/27 02:17:15;;;;;;;4.25;2.33;;;;;;;3.34;100.00;94640.66;1007136;29;20265;-68
2023/03/27 02:17:48;;;;;;;4.30;1.80;;;;;;;3.35;100.00;94642.22;1010929;29;20261;-68
2023/03/27 02:18:23;;;;;;;4.07;2.05;;;;;;;3.34;100.00;94638.06;1018533;29;20016;-68
2023/03/27 02:18:55;;;;;;;2.53;1.67;;;;;;;3.36;100.00;94635.25;1015163;29;20646;-67
2023/03/27 02:19:32;;;;;;;2.30;1.77;;;;;;;3.37;100.00;94637.56;1010820;29;20459;-68
2023/03/27 02:20:14;;;;;;;2.10;1.90;;;;;;;3.36;100.00;94638.59;1015072;29;20283;-68
2023/03/27 02:20:45;;;;;;;2.08;1.60;;;;;;;3.31;100.00;94625.59;1022965;29;20259;-67
2023/03/27 02:21:15;;;;;;;2.22;1.98;;;;;;;3.38;100.00;94633.94;1019644;29;20290;-69
2023/03/27 02:21:46;;;;;;;2.72;2.00;;;;;;;3.35;100.00;94626.66;1019430;29;20032;-67
2023/03/27 02:22:17;;;;;;;2.17;1.88;;;;;;;3.38;100.00;94633.94;1021547;29;20102;-70
2023/03/27 02:22:47;;;;;;;2.85;1.75;;;;;;;3.38;100.00;94639.13;1019663;29;20294;-67
2023/03/27 02:23:18;;;;;;;2.00;1.80;;;;;;;3.37;100.00;94640.16;1019627;29;20036;-67
2023/03/27 02:23:48;;;;;;;3.42;2.25;;;;;;;3.33;100.00;94633.13;1015679;29;20080;-69
2023/03/27 02:24:19;;;;;;;2.78;2.00;;;;;;;3.38;100.00;94641.72;1012228;29;20041;-67
2023/03/27 02:24:53;;;;;;;2.15;1.95;;;;;;;3.36;100.00;94640.41;1010593;29;20029;-64
2023/03/27 02:25:33;;;;;;;3.45;1.98;;;;;;;3.31;100.00;94638.53;1012265;29;20032;-65
2023/03/27 02:26:04;;;;;;;2.95;2.03;;;;;;;3.33;100.00;94636.50;1013290;29;20345;-66
2023/03/27 02:26:34;;;;;;;4.32;2.20;;;;;;;3.36;100.00;94646.38;1016393;29;20103;-65
2023/03/27 02:27:11;;;;;;;2.50;2.30;;;;;;;3.39;100.00;94640.72;1015917;29;20047;-67
2023/03/27 02:27:44;;;;;;;2.47;2.00;;;;;;;3.35;100.00;94638.84;1011497;29;20032;-66
2023/03/27 02:28:30;;;;;;;2.03;1.83;;;;;;;3.39;100.00;94645.13;1015778;29;20394;-67
2023/03/27 02:29:15;;;;;;;2.72;1.95;;;;;;;3.40;100.00;94650.06;1015414;29;20283;-67
2023/03/27 02:30:00;;;;;;;2.80;2.10;;;;;;;3.40;100.00;94647.47;1015805;29;20304;-66
2023/03/27 02:30:56;;;;;;;4.03;2.65;;;;;;;3.42;100.00;94645.41;1020673;29;20355;-67
2023/03/27 02:31:52;;;;;;;3.15;2.08;;;;;;;3.40;100.00;94644.09;1026850;28;20250;-67
2023/03/27 02:32:47;;;;;;;2.63;1.98;;;;;;;3.40;100.00;94657.81;1019648;29;20283;-67
2023/03/27 02:33:33;;;;;;;3.80;2.63;;;;;;;3.38;100.00;94653.91;1011747;29;20273;-68
2023/03/27 02:34:22;;;;;;;5.78;2.13;;;;;;;3.39;100.00;94658.88;1014075;29;20268;-67
2023/03/27 02:35:11;;;;;;;3.40;2.10;;;;;;;3.39;100.00;94653.69;1021123;28;20283;-69
2023/03/27 02:36:09;;;;;;;5.63;2.55;;;;;;;3.35;100.00;94652.56;1027263;28;20316;-67
2023/03/27 02:36:54;;;;;;;2.95;2.50;;;;;;;3.37;100.00;94649.75;1027848;28;20277;-69
2023/03/27 02:38:07;;;;;;;2.72;2.28;;;;;;;3.36;100.00;94661.94;1019459;29;20781;-71
2023/03/27 02:38:43;;;;;;;2.28;1.95;;;;;;;3.36;100.00;94666.34;1003575;29;20894;-66
2023/03/27 02:39:20;;;;;;;4.03;2.53;;;;;;;3.35;100.00;94659.56;1005311;29;20306;-66
2023/03/27 02:40:24;;;;;;;3.05;2.50;;;;;;;3.35;100.00;94664.75;1003701;29;20621;-68
2023/03/27 02:40:56;;;;;;;4.72;2.90;;;;;;;3.35;100.00;94662.16;995533;29;20271;-66
2023/03/27 02:41:46;;;;;;;3.05;2.38;;;;;;;3.34;100.00;94663.97;1004196;29;20250;-68
2023/03/27 02:42:33;;;;;;;3.17;2.25;;;;;;;3.29;100.00;94659.53;1007724;29;20422;-69
2023/03/27 02:43:44;;;;;;;3.25;2.60;;;;;;;3.30;100.00;94663.69;1020248;29;20342;-70
2023/03/27 02:44:22;;;;;;;4.30;2.95;;;;;;;3.26;100.00;94659.25;1019044;29;20283;-68
2023/03/27 02:45:01;;;;;;;3.78;2.25;;;;;;;3.26;100.00;94656.66;1008495;29;20040;-68
2023/03/27 02:45:53;;;;;;;4.38;2.42;;;;;;;3.30;100.00;94673.28;1011562;29;20288;-70
2023/03/27 02:46:37;;;;;;;3.25;2.03;;;;;;;3.32;100.00;94671.25;1012197;29;20292;-68
2023/03/27 02:47:15;;;;;;;4.53;2.30;;;;;;;3.24;100.00;94667.25;1014485;29;20272;-68
2023/03/27 02:48:04;;;;;;;2.55;2.20;;;;;;;3.27;100.00;94666.75;1011055;29;20285;-68
2023/03/27 02:48:53;;;;;;;3.15;2.42;;;;;;;3.26;100.00;94678.16;1011652;29;20308;-70
2023/03/27 02:49:30;;;;;;;3.65;2.55;;;;;;;3.23;100.00;94670.88;1015264;29;20280;-67
2023/03/27 02:50:08;;;;;;;3.75;2.65;;;;;;;3.26;100.00;94674.78;1016200;29;20280;-70
2023/03/27 02:51:10;;;;;;;3.20;2.30;;;;;;;3.28;100.00;94683.88;1011618;29;20313;-70
2023/03/27 02:51:43;;;;;;;2.97;2.03;;;;;;;3.23;100.00;94683.06;1017754;29;20654;-68
2023/03/27 02:52:17;;;;;;;3.10;2.50;;;;;;;3.26;100.00;94679.97;1019478;29;20271;-69
2023/03/27 02:52:52;;;;;;;4.05;2.58;;;;;;;3.22;100.00;94673.69;1015595;29;20363;-68
2023/03/27 02:53:23;;;;;;;3.10;2.55;;;;;;;3.26;100.00;94679.97;1015487;29;20373;-67
2023/03/27 02:53:58;;;;;;;3.05;2.50;;;;;;;3.26;100.00;94687.75;1019391;29;20287;-67
2023/03/27 02:54:31;;;;;;;3.20;2.35;;;;;;;3.28;100.00;94686.47;1014992;29;20397;-66
2023/03/27 02:55:16;;;;;;;3.58;2.67;;;;;;;3.26;100.00;94682.56;1010926;29;20815;-71
2023/03/27 02:55:52;;;;;;;3.35;2.30;;;;;;;3.26;100.00;94683.34;1007972;29;20277;-67
2023/03/27 02:56:23;;;;;;;5.28;2.83;;;;;;;3.24;100.00;94684.63;1007748;29;20318;-66
2023/03/27 02:56:55;;;;;;;3.85;2.28;;;;;;;3.20;100.00;94688.72;1015575;29;20272;-69